TimeCST,TemperatureF,Dew PointF,Humidity,Sea Level PressureIn,VisibilityMPH,Wind Direction,Wind SpeedMPH,Gust SpeedMPH,PrecipitationIn,Events,Conditions,WindDirDegrees,DateUTC
12:53 AM,43.0,37.0,80,30.35,10.0,North,8.1,-,N/A,,Clear,360,2013-01-04 06:53:00
1:53 AM,45.0,37.9,76,30.37,10.0,North,6.9,-,N/A,,Overcast,350,2013-01-04 07:53:00
2:53 AM,46.9,37.9,71,30.37,10.0,North,9.2,-,N/A,,Overcast,360,2013-01-04 08:53:00
3:53 AM,46.9,37.9,71,30.38,10.0,North,9.2,-,N/A,,Overcast,360,2013-01-04 09:53:00
4:53 AM,48.0,37.9,68,30.40,10.0,North,9.2,-,N/A,,Overcast,360,2013-01-04 10:53:00
5:53 AM,48.0,37.9,68,30.41,10.0,North,12.7,-,N/A,,Overcast,360,2013-01-04 11:53:00
6:53 AM,48.0,37.9,68,30.42,10.0,North,12.7,-,N/A,,Overcast,10,2013-01-04 12:53:00
7:53 AM,48.0,37.0,66,30.44,10.0,NNE,10.4,-,N/A,,Overcast,20,2013-01-04 13:53:00
8:53 AM,48.9,37.9,66,30.46,10.0,NNE,13.8,-,N/A,,Overcast,20,2013-01-04 14:53:00
9:53 AM,50.0,36.0,59,30.47,10.0,NNE,15.0,-,N/A,,Overcast,30,2013-01-04 15:53:00
10:53 AM,50.0,36.0,59,30.46,10.0,NE,16.1,23.0,N/A,,Overcast,40,2013-01-04 16:53:00
11:53 AM,51.1,35.1,54,30.43,10.0,NE,17.3,-,N/A,,Overcast,40,2013-01-04 17:53:00
12:53 PM,51.1,34.0,52,30.40,10.0,NE,17.3,-,N/A,,Overcast,40,2013-01-04 18:53:00
1:53 PM,52.0,35.1,53,30.36,10.0,NE,13.8,-,N/A,,Overcast,40,2013-01-04 19:53:00
2:53 PM,52.0,33.1,49,30.35,10.0,NE,13.8,-,N/A,,Overcast,40,2013-01-04 20:53:00
3:53 PM,52.0,33.1,49,30.36,10.0,NNE,12.7,-,N/A,,Overcast,30,2013-01-04 21:53:00
4:53 PM,51.8,33.8,50,30.36,10.0,NNE,12.7,-,N/A,,Overcast,30,2013-01-04 22:53:00
5:53 PM,51.1,34.0,52,30.35,10.0,NNE,11.5,-,N/A,,Overcast,30,2013-01-04 23:53:00
6:53 PM,50.0,37.0,61,30.38,10.0,North,8.1,-,N/A,,Overcast,10,2013-01-05 00:53:00
7:53 PM,50.0,36.0,59,30.37,10.0,NNE,11.5,-,N/A,,Overcast,20,2013-01-05 01:53:00
8:53 PM,50.0,37.0,61,30.37,10.0,NNE,8.1,-,0.00,,Overcast,20,2013-01-05 02:53:00
9:53 PM,50.0,37.0,61,30.38,10.0,North,4.6,-,N/A,,Overcast,350,2013-01-05 03:53:00
10:53 PM,48.9,37.9,66,30.37,10.0,North,9.2,-,N/A,,Overcast,350,2013-01-05 04:53:00
11:53 PM,48.9,37.9,66,30.37,10.0,North,8.1,-,N/A,,Overcast,360,2013-01-05 05:53:00